createdAt,value
2022-08-31T00:00:31.799Z,19.40
2022-08-31T00:03:17.319Z,19.40
2022-08-31T00:05:44.799Z,19.40
2022-08-31T00:08:11.748Z,19.40
2022-08-31T00:10:43.629Z,19.30
2022-08-31T00:13:12.325Z,19.30
2022-08-31T00:15:39.291Z,19.30
2022-08-31T00:18:06.275Z,19.30
2022-08-31T00:20:34.712Z,19.30
2022-08-31T00:23:08.236Z,19.30
2022-08-31T00:25:36.852Z,19.30
2022-08-31T00:28:05.192Z,19.20
2022-08-31T00:30:32.888Z,19.20
2022-08-31T00:33:00.383Z,19.20
2022-08-31T00:35:29.211Z,19.20
2022-08-31T00:37:56.481Z,19.20
2022-08-31T00:40:23.905Z,19.20
2022-08-31T00:42:51.114Z,19.20
2022-08-31T00:45:18.303Z,19.20
2022-08-31T00:47:45.267Z,19.10
2022-08-31T00:50:15.132Z,19.10
2022-08-31T00:52:46.270Z,19.10
2022-08-31T00:55:17.920Z,19.10
2022-08-31T00:57:47.691Z,19.10
2022-08-31T01:00:19.351Z,19.10
2022-08-31T01:02:46.709Z,19.10
2022-08-31T01:05:16.014Z,19.00
2022-08-31T01:07:45.143Z,19.00
2022-08-31T01:10:12.087Z,19.10
2022-08-31T01:12:39.125Z,19.00
2022-08-31T01:15:08.715Z,19.10
2022-08-31T01:17:37.933Z,19.00
2022-08-31T01:20:30.403Z,19.00
2022-08-31T01:23:09.004Z,19.00
2022-08-31T01:25:38.859Z,19.00
2022-08-31T01:28:07.915Z,19.00
2022-08-31T01:30:35.936Z,19.00
2022-08-31T01:33:03.280Z,19.00
2022-08-31T01:35:30.892Z,19.00
2022-08-31T01:37:58.867Z,19.00
2022-08-31T01:40:37.774Z,19.00
2022-08-31T01:43:04.745Z,19.00
2022-08-31T01:45:31.823Z,19.00
2022-08-31T01:47:59.652Z,18.90
2022-08-31T01:50:26.919Z,18.90
2022-08-31T01:52:53.983Z,18.90
2022-08-31T01:55:21.169Z,18.90
2022-08-31T01:57:48.272Z,18.90
2022-08-31T02:00:15.715Z,18.90
2022-08-31T02:02:43.140Z,18.90
2022-08-31T02:05:10.531Z,18.90
2022-08-31T02:07:37.507Z,18.90
2022-08-31T02:10:05.534Z,18.90
2022-08-31T02:12:32.635Z,18.90
2022-08-31T02:14:59.628Z,18.90
2022-08-31T02:17:26.584Z,18.90
2022-08-31T02:19:53.520Z,18.90
2022-08-31T02:22:20.566Z,18.90
2022-08-31T02:24:47.539Z,18.80
2022-08-31T02:27:14.540Z,18.80
2022-08-31T02:29:41.692Z,18.90
2022-08-31T02:32:08.761Z,18.90
2022-08-31T02:34:46.556Z,18.90
2022-08-31T02:37:13.591Z,18.80
2022-08-31T02:39:40.587Z,18.80
2022-08-31T02:42:07.656Z,18.80
2022-08-31T02:44:35.281Z,18.80
2022-08-31T02:47:02.217Z,18.80
2022-08-31T02:49:32.602Z,18.80
2022-08-31T02:51:59.712Z,18.80
2022-08-31T02:54:26.664Z,18.80
2022-08-31T02:56:53.553Z,18.70
2022-08-31T02:59:20.940Z,18.70
2022-08-31T03:01:50.137Z,18.70
2022-08-31T03:04:17.105Z,18.70
2022-08-31T03:06:44.127Z,18.70
2022-08-31T03:09:11.070Z,18.70
2022-08-31T03:11:38.024Z,18.60
2022-08-31T03:14:05.015Z,18.60
2022-08-31T03:16:32.834Z,18.60
2022-08-31T03:18:59.787Z,18.60
2022-08-31T03:21:26.692Z,18.60
2022-08-31T03:23:53.627Z,18.50
2022-08-31T03:26:20.605Z,18.50
2022-08-31T03:28:47.525Z,18.50
2022-08-31T03:31:14.553Z,18.50
2022-08-31T03:33:41.637Z,18.50
2022-08-31T03:36:08.720Z,18.50
2022-08-31T03:38:35.679Z,18.50
2022-08-31T03:41:03.315Z,18.50
2022-08-31T03:43:30.348Z,18.40
2022-08-31T03:45:57.352Z,18.40
2022-08-31T03:48:24.342Z,18.40
2022-08-31T03:50:51.311Z,18.40
2022-08-31T03:53:22.769Z,18.40
2022-08-31T03:55:50.200Z,18.40
2022-08-31T03:58:17.248Z,18.40
2022-08-31T04:00:44.580Z,18.40
2022-08-31T04:03:11.842Z,18.40
2022-08-31T04:05:44.691Z,18.40
2022-08-31T04:08:12.468Z,18.40
2022-08-31T04:10:43.534Z,18.40
2022-08-31T04:13:10.540Z,18.40
2022-08-31T04:15:38.772Z,18.40
2022-08-31T04:18:06.820Z,18.40
2022-08-31T04:20:38.375Z,18.40
2022-08-31T04:23:05.717Z,18.40
2022-08-31T04:25:38.305Z,18.40
2022-08-31T04:28:05.764Z,18.40
2022-08-31T04:30:32.956Z,18.30
2022-08-31T04:33:02.216Z,18.30
2022-08-31T04:35:29.178Z,18.30
2022-08-31T04:37:56.141Z,18.30
2022-08-31T04:40:26.162Z,18.30
2022-08-31T04:42:53.699Z,18.30
2022-08-31T04:45:20.736Z,18.20
2022-08-31T04:47:47.734Z,18.20
2022-08-31T04:50:16.601Z,18.20
2022-08-31T04:52:45.184Z,18.20
2022-08-31T04:55:30.603Z,18.20
2022-08-31T04:57:57.649Z,18.20
2022-08-31T05:00:24.941Z,18.20
2022-08-31T05:02:54.237Z,18.10
2022-08-31T05:05:21.417Z,18.10
2022-08-31T05:07:48.545Z,18.10
2022-08-31T05:10:15.721Z,18.10
2022-08-31T05:12:44.504Z,18.10
2022-08-31T05:15:11.568Z,18.10
2022-08-31T05:17:38.494Z,18.10
2022-08-31T05:20:06.318Z,18.10
2022-08-31T05:22:33.420Z,18.10
2022-08-31T05:25:00.426Z,18.10
2022-08-31T05:27:27.346Z,18.00
2022-08-31T05:29:54.340Z,18.00
2022-08-31T05:32:21.241Z,18.10
2022-08-31T05:34:49.218Z,18.00
2022-08-31T05:37:17.120Z,18.00
2022-08-31T05:39:44.145Z,18.00
2022-08-31T05:42:15.378Z,18.10
2022-08-31T05:44:42.895Z,18.10
2022-08-31T05:47:10.152Z,18.10
2022-08-31T05:49:39.608Z,18.10
2022-08-31T05:52:08.558Z,18.10
2022-08-31T05:54:37.977Z,18.10
2022-08-31T05:57:05.274Z,18.10
2022-08-31T05:59:32.707Z,18.10
2022-08-31T06:02:00.209Z,18.10
2022-08-31T06:04:28.471Z,18.20
2022-08-31T06:06:55.653Z,18.10
2022-08-31T06:09:22.866Z,18.20
2022-08-31T06:11:51.449Z,18.20
2022-08-31T06:14:18.582Z,18.20
2022-08-31T06:16:45.834Z,18.20
2022-08-31T06:19:12.791Z,18.30
2022-08-31T06:21:50.454Z,18.30
2022-08-31T06:24:19.167Z,18.30
2022-08-31T06:26:56.811Z,18.40
2022-08-31T06:29:25.212Z,18.40
2022-08-31T06:31:54.579Z,18.50
2022-08-31T06:34:21.634Z,18.60
2022-08-31T06:36:48.715Z,18.60
2022-08-31T06:39:16.421Z,18.70
2022-08-31T06:41:43.809Z,18.80
2022-08-31T06:44:14.825Z,18.90
2022-08-31T06:46:42.428Z,19.00
2022-08-31T06:49:15.253Z,19.10
2022-08-31T06:51:42.323Z,19.20
2022-08-31T06:54:28.475Z,19.30
2022-08-31T06:57:00.326Z,19.30
2022-08-31T06:59:29.582Z,19.50
2022-08-31T07:01:58.795Z,19.60
2022-08-31T07:04:27.749Z,19.70
2022-08-31T07:06:55.194Z,19.80
2022-08-31T07:09:23.096Z,19.90
2022-08-31T07:11:52.374Z,20.00
2022-08-31T07:14:23.630Z,20.10
2022-08-31T07:16:53.390Z,20.20
2022-08-31T07:19:22.157Z,20.40
2022-08-31T07:21:59.091Z,20.40
2022-08-31T07:24:30.384Z,20.50
2022-08-31T07:27:10.065Z,20.70
2022-08-31T07:29:41.954Z,20.90
2022-08-31T07:32:11.232Z,20.90
2022-08-31T07:34:38.643Z,21.00
2022-08-31T07:37:24.961Z,21.20
2022-08-31T07:40:10.777Z,21.40
2022-08-31T07:42:41.257Z,21.50
2022-08-31T07:45:20.074Z,21.70
2022-08-31T07:47:54.139Z,21.80
2022-08-31T07:50:22.176Z,22.00
2022-08-31T07:52:54.688Z,22.30
2022-08-31T07:55:24.077Z,22.40
2022-08-31T07:57:53.732Z,22.60
2022-08-31T08:00:23.908Z,22.70
2022-08-31T08:02:53.188Z,22.80
2022-08-31T08:05:27.330Z,22.90
2022-08-31T08:07:58.724Z,23.00
2022-08-31T08:10:26.397Z,23.20
2022-08-31T08:13:05.196Z,23.20
2022-08-31T08:15:35.694Z,23.30
2022-08-31T08:18:04.464Z,23.30
2022-08-31T08:20:37.963Z,23.40
2022-08-31T08:23:15.863Z,23.50
2022-08-31T08:25:47.745Z,23.70
2022-08-31T08:31:06.415Z,23.90
2022-08-31T08:33:35.230Z,24.00
2022-08-31T08:36:07.617Z,24.10
2022-08-31T08:38:39.044Z,24.20
2022-08-31T08:41:19.543Z,24.20
2022-08-31T08:43:53.348Z,24.40
2022-08-31T08:46:57.608Z,24.50
2022-08-31T08:49:54.031Z,24.70
2022-08-31T08:52:42.759Z,24.80
2022-08-31T08:55:17.239Z,24.90
2022-08-31T08:57:46.679Z,25.00
2022-08-31T09:00:18.406Z,25.00
2022-08-31T09:03:01.260Z,25.20
2022-08-31T09:05:37.437Z,25.30
2022-08-31T09:08:23.558Z,25.30
2022-08-31T09:11:18.263Z,25.30
2022-08-31T09:13:53.240Z,25.40
2022-08-31T09:16:35.197Z,25.70
2022-08-31T09:19:09.674Z,25.90
2022-08-31T09:21:42.842Z,26.00
2022-08-31T09:24:21.781Z,26.10
2022-08-31T09:27:18.359Z,26.20
2022-08-31T09:29:45.375Z,26.30
2022-08-31T09:32:24.891Z,26.30
2022-08-31T09:35:04.277Z,26.30
2022-08-31T09:37:48.745Z,26.40
2022-08-31T09:40:23.766Z,26.50
2022-08-31T09:43:24.997Z,26.60
2022-08-31T09:46:08.713Z,26.60
2022-08-31T09:48:44.654Z,26.70
2022-08-31T09:51:34.460Z,26.70
2022-08-31T09:54:43.108Z,26.60
2022-08-31T09:57:14.190Z,26.70
2022-08-31T09:59:50.055Z,26.90
2022-08-31T10:02:23.260Z,27.00
2022-08-31T10:04:56.695Z,27.20
2022-08-31T10:08:04.391Z,27.40
2022-08-31T10:10:37.215Z,27.50
2022-08-31T10:13:29.484Z,27.70
2022-08-31T10:16:07.310Z,28.00
2022-08-31T10:18:56.801Z,28.00
2022-08-31T10:21:52.431Z,28.10
2022-08-31T10:24:44.915Z,28.40
2022-08-31T10:27:38.637Z,28.50
2022-08-31T10:30:19.686Z,28.50
2022-08-31T10:32:55.945Z,28.80
2022-08-31T10:35:41.349Z,29.00
2022-08-31T10:38:21.305Z,29.10
2022-08-31T10:41:09.586Z,29.10
2022-08-31T10:44:02.747Z,29.10
2022-08-31T10:46:34.707Z,29.10
2022-08-31T10:49:06.328Z,29.10
2022-08-31T10:51:52.270Z,29.10
2022-08-31T10:54:54.583Z,29.10
2022-08-31T10:57:35.786Z,29.10
2022-08-31T11:00:30.395Z,29.10
2022-08-31T11:03:24.103Z,29.30
2022-08-31T11:05:51.964Z,29.30
2022-08-31T11:08:24.661Z,29.20
2022-08-31T11:10:54.455Z,29.20
2022-08-31T11:13:51.310Z,29.30
2022-08-31T11:16:40.126Z,29.40
2022-08-31T11:19:40.290Z,29.20
2022-08-31T11:22:48.560Z,29.00
2022-08-31T11:26:07.851Z,28.80
2022-08-31T11:28:45.462Z,28.50
2022-08-31T11:31:25.149Z,28.40
2022-08-31T11:34:15.587Z,28.40
2022-08-31T11:36:48.134Z,28.30
2022-08-31T11:39:17.726Z,28.30
2022-08-31T11:41:50.998Z,28.40
2022-08-31T11:44:30.047Z,28.50
2022-08-31T11:47:07.167Z,28.70
2022-08-31T11:49:46.531Z,28.70
2022-08-31T11:52:25.094Z,28.60
2022-08-31T11:54:52.736Z,28.70
2022-08-31T11:57:35.622Z,28.70
2022-08-31T12:00:19.781Z,28.80
2022-08-31T12:03:01.295Z,28.90
2022-08-31T12:05:56.422Z,28.90
2022-08-31T12:08:27.723Z,28.80
2022-08-31T12:11:07.180Z,28.70
2022-08-31T12:13:54.739Z,28.70
2022-08-31T12:16:50.729Z,28.60
2022-08-31T12:20:02.100Z,28.50
2022-08-31T12:23:06.489Z,28.30
2022-08-31T12:26:02.688Z,28.10
2022-08-31T12:28:29.681Z,27.90
2022-08-31T12:31:04.411Z,27.90
2022-08-31T12:33:33.026Z,27.80
2022-08-31T12:36:18.951Z,27.80
2022-08-31T12:38:46.275Z,27.90
2022-08-31T12:41:14.570Z,27.90
2022-08-31T12:43:49.075Z,27.90
2022-08-31T12:46:22.128Z,27.90
2022-08-31T12:49:04.052Z,27.90
2022-08-31T12:51:48.706Z,27.80
2022-08-31T12:54:18.685Z,27.70
2022-08-31T12:57:05.748Z,27.60
2022-08-31T13:00:01.546Z,27.60
2022-08-31T13:02:31.699Z,27.70
2022-08-31T13:05:00.396Z,27.60
2022-08-31T13:07:33.860Z,27.60
2022-08-31T13:10:09.409Z,27.60
2022-08-31T13:12:38.204Z,27.60
2022-08-31T13:15:14.330Z,27.50
2022-08-31T13:17:41.543Z,27.40
2022-08-31T13:20:08.780Z,27.20
2022-08-31T13:22:42.837Z,27.20
2022-08-31T13:25:14.286Z,27.20
2022-08-31T13:27:49.066Z,27.10
2022-08-31T13:30:19.723Z,27.00
2022-08-31T13:32:50.356Z,26.90
2022-08-31T13:35:23.343Z,26.90
2022-08-31T13:38:05.452Z,27.00
2022-08-31T13:40:37.497Z,27.00
2022-08-31T13:43:07.835Z,26.90
2022-08-31T13:45:57.870Z,26.80
2022-08-31T13:48:39.390Z,26.80
2022-08-31T13:51:13.163Z,26.80
2022-08-31T13:53:47.063Z,26.80
2022-08-31T13:56:47.810Z,26.70
2022-08-31T13:59:22.251Z,26.60
2022-08-31T14:01:53.333Z,26.50
2022-08-31T14:04:48.499Z,26.50
2022-08-31T14:07:30.604Z,26.50
2022-08-31T14:10:15.513Z,26.50
2022-08-31T14:12:50.622Z,26.40
2022-08-31T14:15:36.433Z,26.30
2022-08-31T14:18:43.492Z,26.10
2022-08-31T14:21:20.718Z,26.10
2022-08-31T14:24:08.013Z,26.10
2022-08-31T14:26:38.006Z,26.20
2022-08-31T14:29:10.992Z,26.10
2022-08-31T14:31:43.977Z,26.10
2022-08-31T14:34:20.289Z,26.00
2022-08-31T14:36:55.117Z,26.00
2022-08-31T14:39:30.866Z,26.00
2022-08-31T14:42:07.300Z,26.00
2022-08-31T14:44:39.291Z,25.90
2022-08-31T14:47:06.695Z,25.90
2022-08-31T14:49:36.290Z,25.80
2022-08-31T14:52:06.510Z,25.70
2022-08-31T14:54:37.486Z,25.70
2022-08-31T14:57:12.494Z,25.70
2022-08-31T14:59:43.566Z,25.70
2022-08-31T15:02:13.023Z,25.60
2022-08-31T15:04:45.387Z,25.50
2022-08-31T15:07:14.340Z,25.50
2022-08-31T15:09:41.975Z,25.60
2022-08-31T15:12:14.721Z,25.60
2022-08-31T15:14:44.817Z,25.50
2022-08-31T15:17:18.748Z,25.40
2022-08-31T15:19:48.174Z,25.30
2022-08-31T15:22:16.146Z,25.30
2022-08-31T15:24:45.064Z,25.30
2022-08-31T15:27:16.008Z,25.20
2022-08-31T15:29:45.586Z,25.30
2022-08-31T15:32:16.960Z,25.30
2022-08-31T15:34:53.503Z,25.20
2022-08-31T15:37:21.586Z,25.20
2022-08-31T15:39:49.447Z,25.20
2022-08-31T15:42:20.441Z,25.20
2022-08-31T15:44:56.123Z,25.10
2022-08-31T15:47:55.754Z,25.10
2022-08-31T15:50:32.131Z,25.00
2022-08-31T15:53:06.647Z,25.00
2022-08-31T15:55:40.730Z,24.90
2022-08-31T15:58:09.656Z,24.90
2022-08-31T16:00:37.423Z,24.90
2022-08-31T16:03:06.235Z,24.80
2022-08-31T16:05:39.673Z,24.80
2022-08-31T16:08:10.723Z,24.80
2022-08-31T16:10:41.792Z,24.70
2022-08-31T16:13:09.071Z,24.60
2022-08-31T16:15:37.766Z,24.60
2022-08-31T16:18:06.064Z,24.50
2022-08-31T16:20:34.613Z,24.50
2022-08-31T16:23:01.816Z,24.40
2022-08-31T16:25:31.148Z,24.40
2022-08-31T16:28:15.395Z,24.30
2022-08-31T16:30:43.932Z,24.20
2022-08-31T16:33:12.072Z,24.20
2022-08-31T16:35:39.758Z,24.10
2022-08-31T16:38:07.242Z,24.10
2022-08-31T16:40:35.558Z,24.10
2022-08-31T16:43:03.541Z,24.00
2022-08-31T16:45:30.590Z,24.00
2022-08-31T16:48:16.151Z,24.00
2022-08-31T16:50:47.719Z,23.90
2022-08-31T16:53:18.465Z,23.90
2022-08-31T16:55:47.916Z,23.80
2022-08-31T16:58:29.555Z,23.70
2022-08-31T17:01:12.803Z,23.70
2022-08-31T17:03:51.959Z,23.60
2022-08-31T17:06:19.850Z,23.60
2022-08-31T17:08:47.210Z,23.50
2022-08-31T17:11:23.784Z,23.50
2022-08-31T17:13:59.386Z,23.40
2022-08-31T17:16:35.308Z,23.30
2022-08-31T17:19:06.548Z,23.30
2022-08-31T17:21:34.695Z,23.20
2022-08-31T17:24:04.005Z,23.20
2022-08-31T17:26:35.104Z,23.10
2022-08-31T17:29:05.456Z,23.00
2022-08-31T17:31:36.427Z,23.00
2022-08-31T17:34:03.682Z,22.90
2022-08-31T17:36:37.239Z,22.90
2022-08-31T17:39:06.317Z,22.80
2022-08-31T17:41:33.297Z,22.80
2022-08-31T17:44:00.544Z,22.70
2022-08-31T17:46:28.536Z,22.70
2022-08-31T17:48:56.227Z,22.70
2022-08-31T17:51:29.278Z,22.60
2022-08-31T17:54:03.605Z,22.60
2022-08-31T17:56:53.548Z,22.50
2022-08-31T17:59:23.499Z,22.50
2022-08-31T18:01:53.238Z,22.40
2022-08-31T18:04:22.801Z,22.40
2022-08-31T18:06:53.449Z,22.30
2022-08-31T18:09:23.543Z,22.30
2022-08-31T18:11:50.712Z,22.30
2022-08-31T18:14:21.559Z,22.20
2022-08-31T18:16:50.056Z,22.20
2022-08-31T18:19:17.953Z,22.10
2022-08-31T18:21:55.645Z,22.10
2022-08-31T18:24:22.970Z,22.10
2022-08-31T18:26:51.536Z,22.10
2022-08-31T18:29:24.297Z,22.00
2022-08-31T18:31:54.117Z,22.00
2022-08-31T18:34:23.957Z,22.00
2022-08-31T18:36:53.344Z,22.00
2022-08-31T18:39:47.599Z,21.90
2022-08-31T18:42:28.491Z,21.90
2022-08-31T18:45:13.694Z,21.90
2022-08-31T18:47:40.636Z,21.90
2022-08-31T18:50:08.236Z,21.80
2022-08-31T18:52:39.402Z,21.80
2022-08-31T18:55:07.822Z,21.80
2022-08-31T18:57:46.299Z,21.80
2022-08-31T19:00:16.822Z,21.70
2022-08-31T19:02:44.577Z,21.70
2022-08-31T19:05:13.766Z,21.70
2022-08-31T19:07:42.064Z,21.70
2022-08-31T19:10:12.850Z,21.70
2022-08-31T19:12:42.799Z,21.60
2022-08-31T19:15:11.993Z,21.60
2022-08-31T19:17:40.248Z,21.60
2022-08-31T19:20:10.340Z,21.60
2022-08-31T19:22:37.984Z,21.60
2022-08-31T19:25:08.055Z,21.60
2022-08-31T19:27:36.713Z,21.60
2022-08-31T19:30:08.370Z,21.60
2022-08-31T19:32:36.858Z,21.60
2022-08-31T19:35:04.360Z,21.60
2022-08-31T19:37:31.321Z,21.50
2022-08-31T19:39:59.616Z,21.50
2022-08-31T19:45:40.861Z,21.50
2022-08-31T19:48:05.577Z,21.50
2022-08-31T19:50:41.548Z,21.40
2022-08-31T19:53:12.169Z,21.40
2022-08-31T19:55:51.096Z,21.40
2022-08-31T19:58:22.408Z,21.40
2022-08-31T20:00:50.003Z,21.40
2022-08-31T20:03:19.335Z,21.40
2022-08-31T20:05:46.913Z,21.40
2022-08-31T20:08:13.909Z,21.40
2022-08-31T20:10:42.851Z,21.40
2022-08-31T20:13:12.518Z,21.30
2022-08-31T20:15:42.963Z,21.30
2022-08-31T20:18:12.119Z,21.30
2022-08-31T20:20:48.392Z,21.30
2022-08-31T20:23:18.471Z,21.30
2022-08-31T20:25:47.837Z,21.30
2022-08-31T20:28:15.358Z,21.30
2022-08-31T20:30:43.771Z,21.30
2022-08-31T20:33:11.662Z,21.30
2022-08-31T20:35:47.750Z,21.30
2022-08-31T20:38:19.330Z,21.20
2022-08-31T20:40:48.298Z,21.20
2022-08-31T20:43:15.399Z,21.20
2022-08-31T20:45:42.572Z,21.20
2022-08-31T20:48:28.979Z,21.20
2022-08-31T20:50:56.860Z,21.20
2022-08-31T20:53:43.258Z,21.20
2022-08-31T20:56:17.913Z,21.20
2022-08-31T20:58:46.226Z,21.20
2022-08-31T21:01:14.288Z,21.20
2022-08-31T21:03:41.811Z,21.20
2022-08-31T21:06:11.789Z,21.10
2022-08-31T21:08:46.225Z,21.10
2022-08-31T21:11:19.076Z,21.10
2022-08-31T21:13:47.044Z,21.10
2022-08-31T21:16:15.100Z,21.00
2022-08-31T21:18:42.156Z,21.10
2022-08-31T21:21:16.567Z,21.00
2022-08-31T21:23:47.852Z,21.00
2022-08-31T21:26:24.507Z,21.00
2022-08-31T21:28:53.307Z,21.00
2022-08-31T21:31:29.063Z,21.00
2022-08-31T21:34:02.966Z,20.90
2022-08-31T21:36:32.944Z,20.90
2022-08-31T21:39:02.280Z,20.90
2022-08-31T21:41:29.623Z,20.80
2022-08-31T21:43:57.852Z,20.80
2022-08-31T21:46:28.337Z,20.80
2022-08-31T21:48:57.510Z,20.80
2022-08-31T21:51:25.768Z,20.80
2022-08-31T21:54:04.952Z,20.70
2022-08-31T21:56:36.761Z,20.70
2022-08-31T21:59:06.752Z,20.70
2022-08-31T22:01:35.416Z,20.70
2022-08-31T22:04:02.703Z,20.70
2022-08-31T22:06:31.461Z,20.60
2022-08-31T22:09:07.928Z,20.60
2022-08-31T22:11:44.071Z,20.60
2022-08-31T22:14:13.400Z,20.60
2022-08-31T22:16:40.918Z,20.60
2022-08-31T22:19:12.699Z,20.50
2022-08-31T22:21:46.374Z,20.50
2022-08-31T22:24:27.732Z,20.50
2022-08-31T22:26:57.384Z,20.50
2022-08-31T22:29:27.120Z,20.40
2022-08-31T22:32:00.261Z,20.40
2022-08-31T22:34:27.488Z,20.40
2022-08-31T22:36:56.426Z,20.40
2022-08-31T22:39:26.678Z,20.40
2022-08-31T22:41:54.402Z,20.30
2022-08-31T22:44:24.976Z,20.30
2022-08-31T22:46:53.277Z,20.40
2022-08-31T22:49:20.528Z,20.40
2022-08-31T22:51:48.462Z,20.40
2022-08-31T22:54:17.972Z,20.30
2022-08-31T22:56:45.879Z,20.30
2022-08-31T22:59:21.111Z,20.30
2022-08-31T23:01:55.114Z,20.30
2022-08-31T23:04:25.004Z,20.30
2022-08-31T23:06:52.743Z,20.20
2022-08-31T23:09:21.694Z,20.20
2022-08-31T23:11:51.794Z,20.20
2022-08-31T23:14:21.226Z,20.20
2022-08-31T23:16:59.274Z,20.20
2022-08-31T23:19:32.935Z,20.20
2022-08-31T23:22:01.680Z,20.20
2022-08-31T23:24:34.853Z,20.20
2022-08-31T23:27:04.518Z,20.20
2022-08-31T23:29:47.950Z,20.20
2022-08-31T23:32:18.891Z,20.20
2022-08-31T23:34:49.878Z,20.20
2022-08-31T23:37:17.964Z,20.20
2022-08-31T23:39:46.343Z,20.20
2022-08-31T23:42:16.300Z,20.20
2022-08-31T23:44:45.839Z,20.20
2022-08-31T23:47:20.331Z,20.10
2022-08-31T23:49:51.465Z,20.20
2022-08-31T23:52:21.785Z,20.20
2022-08-31T23:54:51.131Z,20.10
2022-08-31T23:57:31.434Z,20.10
